createdAt,value
2023-04-08T00:01:00.581Z,117.27
2023-04-08T00:03:29.266Z,57.73
2023-04-08T00:05:57.887Z,44.70
2023-04-08T00:08:26.464Z,109.37
2023-04-08T00:10:55.164Z,200.53
2023-04-08T00:13:23.733Z,88.27
2023-04-08T00:15:52.236Z,202.93
2023-04-08T00:18:22.113Z,80.17
2023-04-08T00:20:50.674Z,89.17
2023-04-08T00:23:21.294Z,119.60
2023-04-08T00:25:49.847Z,228.37
2023-04-08T00:28:18.336Z,130.97
2023-04-08T00:30:47.061Z,179.17
2023-04-08T00:33:16.640Z,108.50
2023-04-08T00:35:46.704Z,226.23
2023-04-08T00:38:15.460Z,244.03
2023-04-08T00:40:44.205Z,171.60
2023-04-08T00:43:13.081Z,280.80
2023-04-08T00:45:41.680Z,289.13
2023-04-08T00:48:10.378Z,414.47
2023-04-08T00:50:38.981Z,236.63
2023-04-08T00:53:08.886Z,456.57
2023-04-08T00:55:37.482Z,310.70
2023-04-08T00:58:05.999Z,443.03
2023-04-08T01:00:36.667Z,317.00
2023-04-08T01:03:11.004Z,276.20
2023-04-08T01:05:49.853Z,318.87
2023-04-08T01:08:19.819Z,141.23
2023-04-08T01:10:52.109Z,222.60
2023-04-08T01:13:24.774Z,264.67
2023-04-08T01:15:55.613Z,334.40
2023-04-08T01:18:25.352Z,162.23
2023-04-08T01:20:56.243Z,176.33
2023-04-08T01:23:34.175Z,232.57
2023-04-08T01:26:04.484Z,322.80
2023-04-08T01:28:35.691Z,198.07
2023-04-08T01:31:04.978Z,316.90
2023-04-08T01:33:35.139Z,199.27
2023-04-08T01:36:04.725Z,222.53
2023-04-08T01:38:34.638Z,330.00
2023-04-08T01:41:06.702Z,348.10
2023-04-08T01:43:36.569Z,162.83
2023-04-08T01:46:09.371Z,437.83
2023-04-08T01:48:38.626Z,237.60
2023-04-08T01:51:07.839Z,314.63
2023-04-08T01:53:38.203Z,269.80
2023-04-08T01:56:13.378Z,236.50
2023-04-08T01:58:47.561Z,295.07
2023-04-08T02:01:20.236Z,188.03
2023-04-08T02:03:53.155Z,207.10
2023-04-08T02:06:21.782Z,189.83
2023-04-08T02:08:50.580Z,338.10
2023-04-08T02:11:21.231Z,296.57
2023-04-08T02:13:50.335Z,222.77
2023-04-08T02:16:24.080Z,326.20
2023-04-08T02:18:58.042Z,284.37
2023-04-08T02:21:34.289Z,338.10
2023-04-08T02:24:06.301Z,234.07
2023-04-08T02:26:38.602Z,294.93
2023-04-08T02:29:10.782Z,302.77
2023-04-08T02:31:41.409Z,374.17
2023-04-08T02:34:11.760Z,209.97
2023-04-08T02:36:41.137Z,133.23
2023-04-08T02:39:09.826Z,185.20
2023-04-08T02:41:39.782Z,287.90
2023-04-08T02:44:08.342Z,152.73
2023-04-08T02:46:42.165Z,157.77
2023-04-08T02:49:10.685Z,212.73
2023-04-08T02:51:39.201Z,217.10
2023-04-08T02:54:07.694Z,152.57
2023-04-08T02:56:36.533Z,178.30
2023-04-08T02:59:06.526Z,259.50
2023-04-08T03:01:35.165Z,218.53
2023-04-08T03:04:03.902Z,339.13
2023-04-08T03:06:32.807Z,239.73
2023-04-08T03:09:01.309Z,201.30
2023-04-08T03:11:29.834Z,160.67
2023-04-08T03:13:58.476Z,264.73
2023-04-08T03:16:28.502Z,231.33
2023-04-08T03:18:57.045Z,259.63
2023-04-08T03:21:26.754Z,213.53
2023-04-08T03:23:55.288Z,155.60
2023-04-08T03:26:23.799Z,222.60
2023-04-08T03:28:53.974Z,164.13
2023-04-08T03:31:22.720Z,208.83
2023-04-08T03:33:52.696Z,160.70
2023-04-08T03:36:21.233Z,101.70
2023-04-08T03:38:49.902Z,217.37
2023-04-08T03:41:18.539Z,244.73
2023-04-08T03:43:47.044Z,109.87
2023-04-08T03:46:15.665Z,189.97
2023-04-08T03:48:44.183Z,280.83
2023-04-08T03:51:14.099Z,188.83
2023-04-08T03:53:42.600Z,234.07
2023-04-08T03:56:11.309Z,305.57
2023-04-08T03:58:39.868Z,222.03
2023-04-08T04:01:08.413Z,180.77
2023-04-08T04:03:37.170Z,116.17
2023-04-08T04:06:05.815Z,212.97
2023-04-08T04:08:35.801Z,144.67
2023-04-08T04:11:04.346Z,163.00
2023-04-08T04:13:32.914Z,197.73
2023-04-08T04:16:01.483Z,150.30
2023-04-08T04:18:30.200Z,161.53
2023-04-08T04:20:58.789Z,147.87
2023-04-08T04:23:27.371Z,225.53
2023-04-08T04:25:57.319Z,127.67
2023-04-08T04:28:26.019Z,155.57
2023-04-08T04:30:56.475Z,120.43
2023-04-08T04:33:25.745Z,49.57
2023-04-08T04:35:54.429Z,80.77
2023-04-08T04:38:22.974Z,44.73
2023-04-08T04:40:51.610Z,36.60
2023-04-08T04:43:21.527Z,50.97
2023-04-08T04:45:49.988Z,63.67
2023-04-08T04:48:18.554Z,254.77
2023-04-08T04:50:55.948Z,112.70
2023-04-08T04:53:24.642Z,98.23
2023-04-08T04:55:53.270Z,108.57
2023-04-08T04:58:23.146Z,153.20
2023-04-08T05:00:51.733Z,81.83
2023-04-08T05:03:20.649Z,103.77
2023-04-08T05:05:53.401Z,138.63
2023-04-08T05:08:22.873Z,128.47
2023-04-08T05:10:51.383Z,90.63
2023-04-08T05:13:20.221Z,95.93
2023-04-08T05:15:50.197Z,183.53
2023-04-08T05:18:18.740Z,182.73
2023-04-08T05:20:47.357Z,79.50
2023-04-08T05:23:15.893Z,85.80
2023-04-08T05:25:44.385Z,132.30
2023-04-08T05:28:12.957Z,188.87
2023-04-08T05:30:41.916Z,207.50
2023-04-08T05:33:11.843Z,154.07
2023-04-08T05:35:40.460Z,138.57
2023-04-08T05:38:09.008Z,126.17
2023-04-08T05:40:37.497Z,120.23
2023-04-08T05:43:06.019Z,205.40
2023-04-08T05:45:34.545Z,290.20
2023-04-08T05:48:03.099Z,310.20
2023-04-08T05:50:32.964Z,117.40
2023-04-08T05:53:01.739Z,92.27
2023-04-08T05:55:30.380Z,173.40
2023-04-08T05:57:58.903Z,57.37
2023-04-08T06:00:27.415Z,88.63
2023-04-08T06:02:56.097Z,94.53
2023-04-08T06:05:24.801Z,50.97
2023-04-08T06:07:54.745Z,42.00
2023-04-08T06:10:24.102Z,69.53
2023-04-08T06:12:52.707Z,21.07
2023-04-08T06:15:21.377Z,21.93
2023-04-08T06:17:49.980Z,17.73
2023-04-08T06:20:18.523Z,19.20
2023-04-08T06:22:47.053Z,17.50
2023-04-08T06:25:17.078Z,16.50
2023-04-08T06:27:45.727Z,16.43
2023-04-08T06:30:14.448Z,13.17
2023-04-08T06:32:42.994Z,12.67
2023-04-08T06:35:11.672Z,12.93
2023-04-08T06:37:40.269Z,15.87
2023-04-08T06:40:09.713Z,10.93
2023-04-08T06:42:40.916Z,14.90
2023-04-08T06:45:19.730Z,14.17
2023-04-08T06:47:48.456Z,17.23
2023-04-08T06:50:17.128Z,12.40
2023-04-08T06:52:45.705Z,10.87
2023-04-08T06:55:14.586Z,12.03
2023-04-08T06:57:44.553Z,10.53
2023-04-08T07:00:13.915Z,9.13
2023-04-08T07:02:42.582Z,9.17
2023-04-08T07:05:11.339Z,9.60
2023-04-08T07:07:39.904Z,10.23
2023-04-08T07:10:11.104Z,10.07
2023-04-08T07:12:39.939Z,10.83
2023-04-08T07:15:11.366Z,12.30
2023-04-08T07:17:40.451Z,12.00
2023-04-08T07:20:09.972Z,9.43
2023-04-08T07:22:38.594Z,12.30
2023-04-08T07:25:07.892Z,11.53
2023-04-08T07:27:36.684Z,8.77
2023-04-08T07:30:06.105Z,10.97
2023-04-08T07:32:36.791Z,6.43
2023-04-08T07:35:06.444Z,6.83
2023-04-08T07:37:34.930Z,7.63
2023-04-08T07:40:03.498Z,8.13
2023-04-08T07:42:32.125Z,7.87
2023-04-08T07:45:00.701Z,6.50
2023-04-08T07:47:29.371Z,6.50
2023-04-08T07:49:59.519Z,6.63
2023-04-08T07:52:28.247Z,6.50
2023-04-08T07:54:57.002Z,6.83
2023-04-08T07:57:35.617Z,7.90
2023-04-08T08:00:05.675Z,8.10
2023-04-08T08:02:45.445Z,5.00
2023-04-08T08:05:19.401Z,10.77
2023-04-08T08:07:52.296Z,8.00
2023-04-08T08:10:32.246Z,6.37
2023-04-08T08:13:01.063Z,6.27
2023-04-08T08:15:29.688Z,8.30
2023-04-08T08:17:58.382Z,8.67
2023-04-08T08:20:28.621Z,7.13
2023-04-08T08:22:57.983Z,7.20
2023-04-08T08:25:26.683Z,8.53
2023-04-08T08:27:55.480Z,7.00
2023-04-08T08:30:25.166Z,7.77
2023-04-08T08:32:54.009Z,7.50
2023-04-08T08:35:22.750Z,8.47
2023-04-08T08:37:52.782Z,11.13
2023-04-08T08:40:21.759Z,7.93
2023-04-08T08:42:54.316Z,13.20
2023-04-08T08:45:23.020Z,8.33
2023-04-08T08:47:52.974Z,7.33
2023-04-08T08:50:21.860Z,7.83
2023-04-08T08:52:52.856Z,8.77
2023-04-08T08:55:41.505Z,8.80
2023-04-08T08:58:10.980Z,8.63
2023-04-08T09:00:41.123Z,10.67
2023-04-08T09:03:18.270Z,6.73
2023-04-08T09:05:52.469Z,8.20
2023-04-08T09:08:31.428Z,8.63
2023-04-08T09:11:13.943Z,7.10
2023-04-08T09:13:43.201Z,7.83
2023-04-08T09:16:13.977Z,7.33
2023-04-08T09:18:44.697Z,7.73
2023-04-08T09:21:15.563Z,10.07
2023-04-08T09:23:47.221Z,8.13
2023-04-08T09:26:17.234Z,7.13
2023-04-08T09:28:59.608Z,11.53
2023-04-08T09:31:31.774Z,8.37
2023-04-08T09:34:02.440Z,10.03
2023-04-08T09:36:31.156Z,9.03
2023-04-08T09:39:01.344Z,7.43
2023-04-08T09:41:30.953Z,8.93
2023-04-08T09:44:01.256Z,8.63
2023-04-08T09:46:34.646Z,7.07
2023-04-08T09:49:07.469Z,11.27
2023-04-08T09:51:42.143Z,10.37
2023-04-08T09:54:16.106Z,10.13
2023-04-08T09:56:52.453Z,11.17
2023-04-08T09:59:23.991Z,8.67
2023-04-08T10:01:57.438Z,9.60
2023-04-08T10:04:27.715Z,10.07
2023-04-08T10:07:02.030Z,9.17
2023-04-08T10:09:33.419Z,12.17
2023-04-08T10:12:03.142Z,11.50
2023-04-08T10:14:32.655Z,9.37
2023-04-08T10:17:27.364Z,9.20
2023-04-08T10:19:58.712Z,11.73
2023-04-08T10:22:49.791Z,8.53
2023-04-08T10:25:33.473Z,8.40
2023-04-08T10:28:03.538Z,8.17
2023-04-08T10:30:45.849Z,8.27
2023-04-08T10:33:17.255Z,7.83
2023-04-08T10:35:52.452Z,9.73
2023-04-08T10:38:22.229Z,10.47
2023-04-08T10:40:54.059Z,8.97
2023-04-08T10:43:24.308Z,8.57
2023-04-08T10:45:55.232Z,9.33
2023-04-08T10:48:25.662Z,7.63
2023-04-08T10:50:55.900Z,10.43
2023-04-08T10:53:29.644Z,8.00
2023-04-08T10:56:07.547Z,9.20
2023-04-08T10:58:37.562Z,9.83
2023-04-08T11:01:08.404Z,10.13
2023-04-08T11:03:38.067Z,12.60
2023-04-08T11:06:07.594Z,5.17
2023-04-08T11:08:37.787Z,8.27
2023-04-08T11:11:10.967Z,7.90
2023-04-08T11:13:51.111Z,9.20
2023-04-08T11:16:23.123Z,9.17
2023-04-08T11:18:52.758Z,10.67
2023-04-08T11:21:22.306Z,9.40
2023-04-08T11:23:51.759Z,10.23
2023-04-08T11:26:22.170Z,9.50
2023-04-08T11:28:51.903Z,9.80
2023-04-08T11:31:24.336Z,9.03
2023-04-08T11:33:56.201Z,15.40
2023-04-08T11:36:26.032Z,10.00
2023-04-08T11:38:56.333Z,8.50
2023-04-08T11:41:26.674Z,9.83
2023-04-08T11:44:09.903Z,13.90
2023-04-08T11:47:14.442Z,8.40
2023-04-08T11:49:50.754Z,8.80
2023-04-08T11:52:27.211Z,10.37
2023-04-08T11:54:59.818Z,8.77
2023-04-08T11:57:32.840Z,9.97
2023-04-08T12:00:01.703Z,9.60
2023-04-08T12:02:30.469Z,7.87
2023-04-08T12:04:59.081Z,8.37
2023-04-08T12:07:28.163Z,8.00
2023-04-08T12:09:56.932Z,8.63
2023-04-08T12:12:25.613Z,11.17
2023-04-08T12:14:55.588Z,9.63
2023-04-08T12:17:24.365Z,10.23
2023-04-08T12:19:53.176Z,10.30
2023-04-08T12:22:22.143Z,7.40
2023-04-08T12:24:50.988Z,5.53
2023-04-08T12:27:19.897Z,8.07
2023-04-08T12:29:49.849Z,6.37
2023-04-08T12:32:20.156Z,8.53
2023-04-08T12:34:48.830Z,7.00
2023-04-08T12:37:17.554Z,6.93
2023-04-08T12:39:46.200Z,6.37
2023-04-08T12:42:15.004Z,7.53
2023-04-08T12:44:43.726Z,6.83
2023-04-08T12:47:12.425Z,8.23
2023-04-08T12:49:49.354Z,8.13
2023-04-08T12:52:18.899Z,9.60
2023-04-08T12:54:47.686Z,7.97
2023-04-08T12:57:20.782Z,4.53
2023-04-08T13:00:08.810Z,6.43
2023-04-08T13:02:42.504Z,6.60
2023-04-08T13:05:26.287Z,5.33
2023-04-08T13:08:02.172Z,5.57
2023-04-08T13:10:36.661Z,6.33
2023-04-08T13:13:23.019Z,5.60
2023-04-08T13:15:52.207Z,5.40
2023-04-08T13:18:20.807Z,5.43
2023-04-08T13:20:50.879Z,8.23
2023-04-08T13:23:19.507Z,6.30
2023-04-08T13:25:48.657Z,5.60
2023-04-08T13:28:17.642Z,3.87
2023-04-08T13:30:46.461Z,4.87
2023-04-08T13:33:15.172Z,4.33
2023-04-08T13:35:43.894Z,4.93
2023-04-08T13:38:14.350Z,5.40
2023-04-08T13:40:43.804Z,5.00
2023-04-08T13:43:12.700Z,4.77
2023-04-08T13:45:41.857Z,5.20
2023-04-08T13:48:10.728Z,8.40
2023-04-08T13:50:40.372Z,5.97
2023-04-08T13:53:08.992Z,5.03
2023-04-08T13:55:39.061Z,5.17
2023-04-08T13:58:17.218Z,6.67
2023-04-08T14:00:52.742Z,5.57
2023-04-08T14:03:21.486Z,6.67
2023-04-08T14:05:51.086Z,8.30
2023-04-08T14:08:25.703Z,6.63
2023-04-08T14:10:59.972Z,6.73
2023-04-08T14:13:29.313Z,5.70
2023-04-08T14:15:58.507Z,7.50
2023-04-08T14:18:27.507Z,5.73
2023-04-08T14:20:56.501Z,5.93
2023-04-08T14:23:25.325Z,6.03
2023-04-08T14:25:55.384Z,6.00
2023-04-08T14:28:23.992Z,6.13
2023-04-08T14:30:52.711Z,4.60
2023-04-08T14:33:21.451Z,4.53
2023-04-08T14:35:50.090Z,4.97
2023-04-08T14:38:20.667Z,6.77
2023-04-08T14:40:49.661Z,5.60
2023-04-08T14:43:28.654Z,6.70
2023-04-08T14:46:01.499Z,7.00
2023-04-08T14:48:30.787Z,8.63
2023-04-08T14:51:00.071Z,6.33
2023-04-08T14:53:32.114Z,7.30
2023-04-08T14:59:13.905Z,5.37
2023-04-08T15:02:01.249Z,5.40
2023-04-08T15:04:36.301Z,7.10
2023-04-08T15:07:05.505Z,6.10
2023-04-08T15:09:37.166Z,7.63
2023-04-08T15:12:13.646Z,8.40
2023-04-08T15:14:45.883Z,6.57
2023-04-08T15:17:14.834Z,6.30
2023-04-08T15:19:44.943Z,5.17
2023-04-08T15:22:23.389Z,6.83
2023-04-08T15:24:52.696Z,8.10
2023-04-08T15:27:22.925Z,7.03
2023-04-08T15:29:59.932Z,6.60
2023-04-08T15:32:49.092Z,7.77
2023-04-08T15:35:18.084Z,8.83
2023-04-08T15:37:46.688Z,14.37
2023-04-08T15:40:15.304Z,7.30
2023-04-08T15:42:44.673Z,7.00
2023-04-08T15:45:15.088Z,7.37
2023-04-08T15:47:43.676Z,6.47
2023-04-08T15:50:13.034Z,10.03
2023-04-08T15:52:41.529Z,6.07
2023-04-08T15:55:10.633Z,10.30
2023-04-08T15:57:39.214Z,11.37
2023-04-08T16:00:12.012Z,11.17
2023-04-08T16:02:46.535Z,7.57
2023-04-08T16:05:15.668Z,8.30
2023-04-08T16:07:44.294Z,9.07
2023-04-08T16:10:12.884Z,9.23
2023-04-08T16:12:41.560Z,7.07
2023-04-08T16:15:10.757Z,5.43
2023-04-08T16:17:39.340Z,8.57
2023-04-08T16:20:10.627Z,7.70
2023-04-08T16:22:39.297Z,5.60
2023-04-08T16:25:08.549Z,9.07
2023-04-08T16:27:38.376Z,7.63
2023-04-08T16:30:08.029Z,7.67
2023-04-08T16:32:36.815Z,7.33
2023-04-08T16:35:05.971Z,7.07
2023-04-08T16:37:35.971Z,7.90
2023-04-08T16:40:04.826Z,7.97
2023-04-08T16:42:33.879Z,10.47
2023-04-08T16:45:02.429Z,10.20
2023-04-08T16:47:31.641Z,7.80
2023-04-08T16:50:00.384Z,13.20
2023-04-08T16:52:28.908Z,10.10
2023-04-08T16:54:58.892Z,10.23
2023-04-08T16:57:27.875Z,15.43
2023-04-08T16:59:56.433Z,12.53
2023-04-08T17:02:25.949Z,10.87
2023-04-08T17:04:54.657Z,9.03
2023-04-08T17:07:23.208Z,11.37
2023-04-08T17:09:52.782Z,12.83
2023-04-08T17:12:22.836Z,15.53
2023-04-08T17:14:51.404Z,14.47
2023-04-08T17:17:20.538Z,11.80
2023-04-08T17:19:49.101Z,16.03
2023-04-08T17:22:17.700Z,12.40
2023-04-08T17:24:47.974Z,12.93
2023-04-08T17:27:16.697Z,40.70
2023-04-08T17:29:46.693Z,16.77
2023-04-08T17:32:15.256Z,13.60
2023-04-08T17:34:43.769Z,18.27
2023-04-08T17:37:12.330Z,15.67
2023-04-08T17:39:41.561Z,25.73
2023-04-08T17:42:10.158Z,15.87
2023-04-08T17:44:41.917Z,16.30
2023-04-08T17:47:11.840Z,17.13
2023-04-08T17:49:40.932Z,15.83
2023-04-08T17:52:09.485Z,16.37
2023-04-08T17:54:37.995Z,14.90
2023-04-08T17:57:06.551Z,13.50
2023-04-08T17:59:35.385Z,18.57
2023-04-08T18:02:03.996Z,18.40
2023-04-08T18:04:34.086Z,17.73
2023-04-08T18:07:04.458Z,14.73
2023-04-08T18:09:33.026Z,18.13
2023-04-08T18:12:01.627Z,15.87
2023-04-08T18:14:30.399Z,17.63
2023-04-08T18:16:59.006Z,18.83
2023-04-08T18:19:27.700Z,17.70
2023-04-08T18:21:57.712Z,18.93
2023-04-08T18:24:26.287Z,19.17
2023-04-08T18:27:03.889Z,17.53
2023-04-08T18:29:33.187Z,14.50
2023-04-08T18:32:01.750Z,16.87
2023-04-08T18:34:31.922Z,16.00
2023-04-08T18:37:01.893Z,16.40
2023-04-08T18:39:30.463Z,20.47
2023-04-08T18:41:59.004Z,18.67
2023-04-08T18:44:27.545Z,17.30
2023-04-08T18:46:56.496Z,18.83
2023-04-08T18:49:25.100Z,15.20
2023-04-08T18:52:01.711Z,19.57
2023-04-08T18:54:33.221Z,21.90
2023-04-08T18:57:02.704Z,20.20
2023-04-08T18:59:31.498Z,19.50
2023-04-08T19:02:00.218Z,21.27
2023-04-08T19:04:28.895Z,20.47
2023-04-08T19:06:57.598Z,22.40
2023-04-08T19:09:26.183Z,24.27
2023-04-08T19:11:56.284Z,20.00
2023-04-08T19:14:25.507Z,22.87
2023-04-08T19:16:54.076Z,19.50
2023-04-08T19:19:23.094Z,23.17
2023-04-08T19:21:51.649Z,21.77
2023-04-08T19:24:20.821Z,19.63
2023-04-08T19:26:50.795Z,20.83
2023-04-08T19:29:23.032Z,18.77
2023-04-08T19:31:52.793Z,22.37
2023-04-08T19:34:21.438Z,20.53
2023-04-08T19:36:50.099Z,17.17
2023-04-08T19:39:19.192Z,17.37
2023-04-08T19:41:48.162Z,21.10
2023-04-08T19:44:16.932Z,20.73
2023-04-08T19:46:47.156Z,24.33
2023-04-08T19:49:16.026Z,18.37
2023-04-08T19:51:44.610Z,24.73
2023-04-08T19:54:13.166Z,19.90
2023-04-08T19:56:41.724Z,18.50
2023-04-08T19:59:10.803Z,16.40
2023-04-08T20:01:40.389Z,18.33
2023-04-08T20:04:10.427Z,16.67
2023-04-08T20:06:39.188Z,18.50
2023-04-08T20:09:07.818Z,20.10
2023-04-08T20:11:36.385Z,22.57
2023-04-08T20:14:05.131Z,19.90
2023-04-08T20:16:34.115Z,17.03
2023-04-08T20:19:02.839Z,16.60
2023-04-08T20:21:32.830Z,18.57
2023-04-08T20:24:01.608Z,19.97
2023-04-08T20:26:30.166Z,20.10
2023-04-08T20:28:59.220Z,18.00
2023-04-08T20:31:28.035Z,23.30
2023-04-08T20:33:56.637Z,20.70
2023-04-08T20:36:25.722Z,23.50
2023-04-08T20:38:56.019Z,21.60
2023-04-08T20:41:25.936Z,19.63
2023-04-08T20:43:55.058Z,21.33
2023-04-08T20:46:24.614Z,20.50
2023-04-08T20:48:53.636Z,20.53
2023-04-08T20:51:22.556Z,19.53
2023-04-08T20:53:51.102Z,23.07
2023-04-08T20:56:21.147Z,19.97
2023-04-08T20:58:49.954Z,20.00
2023-04-08T21:01:18.760Z,20.83
2023-04-08T21:03:47.976Z,18.43
2023-04-08T21:06:19.909Z,23.80
2023-04-08T21:08:49.435Z,21.67
2023-04-08T21:11:20.059Z,19.77
2023-04-08T21:13:49.198Z,20.13
2023-04-08T21:16:18.017Z,21.27
2023-04-08T21:18:46.543Z,22.30
2023-04-08T21:21:15.133Z,23.05
2023-04-08T21:23:43.677Z,21.37
2023-04-08T21:26:13.325Z,22.03
2023-04-08T21:28:43.956Z,25.63
2023-04-08T21:31:13.267Z,22.40
2023-04-08T21:33:41.917Z,21.17
2023-04-08T21:36:10.768Z,20.73
2023-04-08T21:38:39.487Z,25.20
2023-04-08T21:41:08.037Z,21.43
2023-04-08T21:43:36.690Z,23.30
2023-04-08T21:46:07.049Z,24.73
2023-04-08T21:48:35.989Z,23.00
2023-04-08T21:51:07.014Z,22.47
2023-04-08T21:53:35.943Z,19.90
2023-04-08T21:56:04.803Z,22.93
2023-04-08T21:58:33.792Z,29.00
2023-04-08T22:01:02.615Z,27.30
2023-04-08T22:03:32.768Z,26.07
2023-04-08T22:06:01.598Z,27.43
2023-04-08T22:08:32.391Z,25.93
2023-04-08T22:11:00.938Z,34.00
2023-04-08T22:13:29.463Z,25.30
2023-04-08T22:15:58.084Z,28.33
2023-04-08T22:18:27.255Z,27.57
2023-04-08T22:20:57.461Z,31.27
2023-04-08T22:23:26.208Z,32.47
2023-04-08T22:25:54.910Z,35.27
2023-04-08T22:28:23.614Z,31.40
2023-04-08T22:30:55.003Z,40.50
2023-04-08T22:33:23.757Z,32.10
2023-04-08T22:35:52.446Z,36.93
2023-04-08T22:38:22.421Z,35.23
2023-04-08T22:40:51.097Z,40.63
2023-04-08T22:43:19.807Z,36.33
2023-04-08T22:45:48.467Z,38.30
2023-04-08T22:48:17.103Z,35.17
2023-04-08T22:50:45.839Z,34.17
2023-04-08T22:53:14.480Z,31.40
2023-04-08T22:55:44.404Z,37.57
2023-04-08T22:58:12.966Z,36.80
2023-04-08T23:00:41.749Z,34.30
2023-04-08T23:03:10.461Z,30.37
2023-04-08T23:05:39.147Z,38.23
2023-04-08T23:08:07.879Z,33.30
2023-04-08T23:10:36.448Z,30.63
2023-04-08T23:13:06.515Z,30.70
2023-04-08T23:15:35.140Z,31.03
2023-04-08T23:18:03.818Z,32.43
2023-04-08T23:20:32.387Z,31.63
2023-04-08T23:23:02.461Z,33.93
2023-04-08T23:25:31.138Z,34.67
2023-04-08T23:27:59.702Z,33.97
2023-04-08T23:30:29.777Z,33.77
2023-04-08T23:32:58.461Z,29.30
2023-04-08T23:35:27.104Z,34.17
2023-04-08T23:37:55.723Z,33.13
2023-04-08T23:40:24.307Z,30.67
2023-04-08T23:42:52.887Z,35.13
2023-04-08T23:45:21.520Z,30.47
2023-04-08T23:47:51.678Z,32.83
2023-04-08T23:50:22.991Z,35.63
2023-04-08T23:52:51.584Z,30.33
2023-04-08T23:55:20.378Z,36.20
2023-04-08T23:57:50.718Z,35.30
